sensor_id;sensor_type;location;lat;lon;timestamp;pressure;altitude;pressure_sealevel;temperature;humidity
74346;BME280;62776;50.518;6.732;2023-09-19T00:02:03;96026.16;;;15.07;100.00
74346;BME280;62776;50.518;6.732;2023-09-19T00:04:50;96027.50;;;15.17;100.00
74346;BME280;62776;50.518;6.732;2023-09-19T00:07:37;96028.25;;;15.21;100.00
74346;BME280;62776;50.518;6.732;2023-09-19T00:10:24;96022.16;;;15.20;100.00
74346;BME280;62776;50.518;6.732;2023-09-19T00:13:12;96031.84;;;15.18;100.00
74346;BME280;62776;50.518;6.732;2023-09-19T00:15:59;96025.94;;;15.13;100.00
74346;BME280;62776;50.518;6.732;2023-09-19T00:18:46;96024.22;;;15.12;100.00
74346;BME280;62776;50.518;6.732;2023-09-19T00:21:32;96030.53;;;15.07;100.00
74346;BME280;62776;50.518;6.732;2023-09-19T00:24:19;96039.38;;;15.03;100.00
74346;BME280;62776;50.518;6.732;2023-09-19T00:27:06;96039.28;;;15.06;100.00
74346;BME280;62776;50.518;6.732;2023-09-19T00:29:54;96023.47;;;15.09;100.00
74346;BME280;62776;50.518;6.732;2023-09-19T00:32:40;96009.47;;;15.10;100.00
74346;BME280;62776;50.518;6.732;2023-09-19T00:35:26;96026.19;;;15.06;100.00
74346;BME280;62776;50.518;6.732;2023-09-19T00:38:13;96011.41;;;15.05;100.00
74346;BME280;62776;50.518;6.732;2023-09-19T00:41:02;96020.28;;;15.01;100.00
74346;BME280;62776;50.518;6.732;2023-09-19T00:43:49;96022.97;;;14.99;100.00
74346;BME280;62776;50.518;6.732;2023-09-19T00:46:45;96020.47;;;14.95;100.00
74346;BME280;62776;50.518;6.732;2023-09-19T00:49:35;96017.31;;;15.10;100.00
74346;BME280;62776;50.518;6.732;2023-09-19T00:52:21;96026.16;;;15.07;100.00
74346;BME280;62776;50.518;6.732;2023-09-19T00:55:10;96028.75;;;15.07;100.00
74346;BME280;62776;50.518;6.732;2023-09-19T00:57:57;96036.50;;;15.10;100.00
74346;BME280;62776;50.518;6.732;2023-09-19T01:00:44;96042.53;;;15.12;100.00
74346;BME280;62776;50.518;6.732;2023-09-19T01:03:30;96043.50;;;15.10;100.00
74346;BME280;62776;50.518;6.732;2023-09-19T01:06:18;96051.50;;;14.81;100.00
74346;BME280;62776;50.518;6.732;2023-09-19T01:09:05;96062.31;;;14.71;100.00
74346;BME280;62776;50.518;6.732;2023-09-19T01:11:55;96064.25;;;14.66;100.00
74346;BME280;62776;50.518;6.732;2023-09-19T01:14:45;96068.13;;;14.55;100.00
74346;BME280;62776;50.518;6.732;2023-09-19T01:17:48;96068.00;;;14.32;100.00
74346;BME280;62776;50.518;6.732;2023-09-19T01:26:56;96076.78;;;14.01;100.00
74346;BME280;62776;50.518;6.732;2023-09-19T01:29:50;96079.75;;;13.91;100.00
74346;BME280;62776;50.518;6.732;2023-09-19T01:32:36;96069.19;;;13.94;100.00
74346;BME280;62776;50.518;6.732;2023-09-19T01:35:25;96073.72;;;13.89;100.00
74346;BME280;62776;50.518;6.732;2023-09-19T01:38:11;96077.28;;;13.86;100.00
74346;BME280;62776;50.518;6.732;2023-09-19T01:41:07;96076.69;;;13.77;100.00
74346;BME280;62776;50.518;6.732;2023-09-19T01:43:57;96064.47;;;13.79;100.00
74346;BME280;62776;50.518;6.732;2023-09-19T01:46:46;96056.72;;;13.76;100.00
74346;BME280;62776;50.518;6.732;2023-09-19T01:49:37;96070.75;;;13.72;100.00
74346;BME280;62776;50.518;6.732;2023-09-19T01:52:33;96066.34;;;13.74;100.00
74346;BME280;62776;50.518;6.732;2023-09-19T01:55:22;96069.88;;;13.73;100.00
74346;BME280;62776;50.518;6.732;2023-09-19T01:58:26;96082.47;;;13.58;100.00
74346;BME280;62776;50.518;6.732;2023-09-19T02:01:18;96080.50;;;13.67;100.00
74346;BME280;62776;50.518;6.732;2023-09-19T02:04:05;96077.81;;;13.68;100.00
74346;BME280;62776;50.518;6.732;2023-09-19T02:06:53;96072.59;;;13.68;100.00
74346;BME280;62776;50.518;6.732;2023-09-19T02:09:40;96071.78;;;13.68;100.00
74346;BME280;62776;50.518;6.732;2023-09-19T02:12:28;96080.56;;;13.65;100.00
74346;BME280;62776;50.518;6.732;2023-09-19T02:15:16;96074.50;;;13.63;100.00
74346;BME280;62776;50.518;6.732;2023-09-19T02:18:02;96089.31;;;13.63;100.00
74346;BME280;62776;50.518;6.732;2023-09-19T02:20:50;96093.69;;;13.62;100.00
74346;BME280;62776;50.518;6.732;2023-09-19T02:23:37;96091.13;;;13.60;100.00
74346;BME280;62776;50.518;6.732;2023-09-19T02:26:24;96094.69;;;13.58;100.00
74346;BME280;62776;50.518;6.732;2023-09-19T02:29:10;96106.88;;;13.57;100.00
74346;BME280;62776;50.518;6.732;2023-09-19T02:32:00;96096.59;;;13.51;100.00
74346;BME280;62776;50.518;6.732;2023-09-19T02:34:48;96099.13;;;13.54;100.00
74346;BME280;62776;50.518;6.732;2023-09-19T02:37:37;96094.81;;;13.53;100.00
74346;BME280;62776;50.518;6.732;2023-09-19T02:40:23;96100.91;;;13.54;100.00
74346;BME280;62776;50.518;6.732;2023-09-19T02:43:11;96086.16;;;13.51;100.00
74346;BME280;62776;50.518;6.732;2023-09-19T02:45:57;96094.06;;;13.50;100.00
74346;BME280;62776;50.518;6.732;2023-09-19T02:48:43;96096.72;;;13.48;100.00
74346;BME280;62776;50.518;6.732;2023-09-19T02:51:29;96105.44;;;13.47;100.00
74346;BME280;62776;50.518;6.732;2023-09-19T02:54:16;96118.50;;;13.47;100.00
74346;BME280;62776;50.518;6.732;2023-09-19T02:57:03;96115.97;;;13.44;100.00
74346;BME280;62776;50.518;6.732;2023-09-19T02:59:52;96115.97;;;13.44;100.00
74346;BME280;62776;50.518;6.732;2023-09-19T03:02:38;96122.13;;;13.42;100.00
74346;BME280;62776;50.518;6.732;2023-09-19T03:05:26;96116.13;;;13.38;100.00
74346;BME280;62776;50.518;6.732;2023-09-19T03:08:16;96110.16;;;13.35;100.00
74346;BME280;62776;50.518;6.732;2023-09-19T03:11:06;96114.69;;;13.28;100.00
74346;BME280;62776;50.518;6.732;2023-09-19T03:13:54;96123.41;;;13.27;100.00
74346;BME280;62776;50.518;6.732;2023-09-19T03:16:40;96131.22;;;13.29;100.00
74346;BME280;62776;50.518;6.732;2023-09-19T03:19:47;96129.16;;;13.08;100.00
74346;BME280;62776;50.518;6.732;2023-09-19T03:22:34;96130.50;;;13.22;100.00
74346;BME280;62776;50.518;6.732;2023-09-19T03:25:20;96127.97;;;13.19;100.00
74346;BME280;62776;50.518;6.732;2023-09-19T03:28:09;96128.06;;;13.16;100.00
74346;BME280;62776;50.518;6.732;2023-09-19T03:31:03;96126.56;;;13.08;100.00
74346;BME280;62776;50.518;6.732;2023-09-19T03:33:49;96135.22;;;13.10;100.00
74346;BME280;62776;50.518;6.732;2023-09-19T03:36:36;96135.28;;;13.07;100.00
74346;BME280;62776;50.518;6.732;2023-09-19T03:39:22;96140.44;;;13.10;100.00
74346;BME280;62776;50.518;6.732;2023-09-19T03:42:13;96137.09;;;13.03;100.00
74346;BME280;62776;50.518;6.732;2023-09-19T03:45:01;96120.50;;;13.07;100.00
74346;BME280;62776;50.518;6.732;2023-09-19T03:47:53;96119.63;;;13.07;100.00
74346;BME280;62776;50.518;6.732;2023-09-19T03:50:39;96117.03;;;13.05;100.00
74346;BME280;62776;50.518;6.732;2023-09-19T03:53:25;96120.50;;;13.07;100.00
74346;BME280;62776;50.518;6.732;2023-09-19T03:56:12;96132.69;;;13.05;100.00
74346;BME280;62776;50.518;6.732;2023-09-19T03:58:58;96128.41;;;13.02;100.00
74346;BME280;62776;50.518;6.732;2023-09-19T04:01:44;96129.25;;;13.03;100.00
74346;BME280;62776;50.518;6.732;2023-09-19T04:04:33;96133.75;;;12.98;100.00
74346;BME280;62776;50.518;6.732;2023-09-19T04:07:19;96131.00;;;13.04;100.00
74346;BME280;62776;50.518;6.732;2023-09-19T04:10:08;96127.47;;;13.05;100.00
74346;BME280;62776;50.518;6.732;2023-09-19T04:12:58;96117.28;;;12.96;100.00
74346;BME280;62776;50.518;6.732;2023-09-19T04:15:46;96120.72;;;12.98;100.00
74346;BME280;62776;50.518;6.732;2023-09-19T04:18:33;96126.81;;;12.97;100.00
74346;BME280;62776;50.518;6.732;2023-09-19T04:21:23;96126.00;;;12.95;100.00
74346;BME280;62776;50.518;6.732;2023-09-19T04:24:09;96126.06;;;12.93;100.00
74346;BME280;62776;50.518;6.732;2023-09-19T04:27:14;96131.72;;;12.75;100.00
74346;BME280;62776;50.518;6.732;2023-09-19T04:30:00;96138.41;;;12.87;100.00
74346;BME280;62776;50.518;6.732;2023-09-19T04:32:51;96139.34;;;12.83;100.00
74346;BME280;62776;50.518;6.732;2023-09-19T04:35:37;96142.81;;;12.83;100.00
74346;BME280;62776;50.518;6.732;2023-09-19T04:38:24;96152.50;;;12.80;100.00
74346;BME280;62776;50.518;6.732;2023-09-19T04:41:11;96142.94;;;12.79;100.00
74346;BME280;62776;50.518;6.732;2023-09-19T04:43:57;96138.69;;;12.75;100.00
74346;BME280;62776;50.518;6.732;2023-09-19T04:46:44;96149.19;;;12.72;100.00
74346;BME280;62776;50.518;6.732;2023-09-19T04:49:35;96148.53;;;12.64;100.00
74346;BME280;62776;50.518;6.732;2023-09-19T04:52:21;96141.50;;;12.67;100.00
74346;BME280;62776;50.518;6.732;2023-09-19T04:55:09;96143.31;;;12.64;100.00
74346;BME280;62776;50.518;6.732;2023-09-19T04:57:55;96149.44;;;12.63;100.00
74346;BME280;62776;50.518;6.732;2023-09-19T05:00:44;96156.47;;;12.61;100.00
74346;BME280;62776;50.518;6.732;2023-09-19T05:03:30;96157.41;;;12.57;100.00
74346;BME280;62776;50.518;6.732;2023-09-19T05:06:17;96156.59;;;12.55;100.00
74346;BME280;62776;50.518;6.732;2023-09-19T05:09:04;96146.19;;;12.55;100.00
74346;BME280;62776;50.518;6.732;2023-09-19T05:11:52;96156.75;;;12.49;100.00
74346;BME280;62776;50.518;6.732;2023-09-19T05:14:38;96167.13;;;12.50;100.00
74346;BME280;62776;50.518;6.732;2023-09-19T05:17:27;96175.81;;;12.51;100.00
74346;BME280;62776;50.518;6.732;2023-09-19T05:20:13;96174.13;;;12.50;100.00
74346;BME280;62776;50.518;6.732;2023-09-19T05:23:05;96171.53;;;12.48;100.00
74346;BME280;62776;50.518;6.732;2023-09-19T05:26:04;96175.88;;;12.48;100.00
74346;BME280;62776;50.518;6.732;2023-09-19T05:28:52;96177.69;;;12.46;100.00
74346;BME280;62776;50.518;6.732;2023-09-19T05:31:39;96182.03;;;12.45;100.00
74346;BME280;62776;50.518;6.732;2023-09-19T05:34:28;96191.75;;;12.38;100.00
74346;BME280;62776;50.518;6.732;2023-09-19T05:37:16;96200.31;;;12.43;100.00
74346;BME280;62776;50.518;6.732;2023-09-19T05:40:04;96201.13;;;12.46;100.00
74346;BME280;62776;50.518;6.732;2023-09-19T05:42:56;96206.28;;;12.47;100.00
74346;BME280;62776;50.518;6.732;2023-09-19T05:45:42;96207.09;;;12.51;100.00
74346;BME280;62776;50.518;6.732;2023-09-19T05:48:28;96212.25;;;12.54;100.00
74346;BME280;62776;50.518;6.732;2023-09-19T05:51:14;96217.44;;;12.55;100.00
74346;BME280;62776;50.518;6.732;2023-09-19T05:54:00;96223.41;;;12.59;100.00
74346;BME280;62776;50.518;6.732;2023-09-19T05:56:49;96232.97;;;12.60;100.00
74346;BME280;62776;50.518;6.732;2023-09-19T05:59:38;96227.59;;;12.66;100.00
74346;BME280;62776;50.518;6.732;2023-09-19T06:02:26;96231.81;;;12.71;100.00
74346;BME280;62776;50.518;6.732;2023-09-19T06:05:16;96236.06;;;12.75;100.00
74346;BME280;62776;50.518;6.732;2023-09-19T06:08:02;96239.38;;;12.82;100.00
74346;BME280;62776;50.518;6.732;2023-09-19T06:10:53;96243.66;;;12.84;100.00
74346;BME280;62776;50.518;6.732;2023-09-19T06:13:39;96235.66;;;12.92;100.00
74346;BME280;62776;50.518;6.732;2023-09-19T06:16:26;96239.94;;;12.94;100.00
74346;BME280;62776;50.518;6.732;2023-09-19T06:19:13;96238.91;;;13.00;100.00
74346;BME280;62776;50.518;6.732;2023-09-19T06:21:59;96245.75;;;13.07;100.00
74346;BME280;62776;50.518;6.732;2023-09-19T06:24:46;96248.19;;;13.13;100.00
74346;BME280;62776;50.518;6.732;2023-09-19T06:27:32;96250.63;;;13.21;100.00
74346;BME280;62776;50.518;6.732;2023-09-19T06:30:19;96250.56;;;13.22;100.00
74346;BME280;62776;50.518;6.732;2023-09-19T06:33:05;96261.91;;;13.21;100.00
74346;BME280;62776;50.518;6.732;2023-09-19T06:35:51;96259.28;;;13.21;100.00
74346;BME280;62776;50.518;6.732;2023-09-19T06:38:38;96260.13;;;13.23;100.00
74346;BME280;62776;50.518;6.732;2023-09-19T06:41:26;96259.22;;;13.24;100.00
74346;BME280;62776;50.518;6.732;2023-09-19T06:44:13;96259.13;;;13.27;100.00
74346;BME280;62776;50.518;6.732;2023-09-19T06:46:59;96264.34;;;13.27;100.00
74346;BME280;62776;50.518;6.732;2023-09-19T06:49:45;96265.28;;;13.26;100.00
74346;BME280;62776;50.518;6.732;2023-09-19T06:52:31;96265.22;;;13.28;100.00
74346;BME280;62776;50.518;6.732;2023-09-19T06:55:19;96259.91;;;13.31;100.00
74346;BME280;62776;50.518;6.732;2023-09-19T06:58:07;96260.72;;;13.34;100.00
74346;BME280;62776;50.518;6.732;2023-09-19T07:00:53;96263.31;;;13.34;100.00
74346;BME280;62776;50.518;6.732;2023-09-19T07:03:40;96274.50;;;13.39;100.00
74346;BME280;62776;50.518;6.732;2023-09-19T07:06:26;96272.53;;;13.47;100.00
74346;BME280;62776;50.518;6.732;2023-09-19T07:09:12;96268.84;;;13.54;100.00
74346;BME280;62776;50.518;6.732;2023-09-19T07:11:58;96266.94;;;13.61;100.00
74346;BME280;62776;50.518;6.732;2023-09-19T07:14:44;96277.25;;;13.66;100.00
74346;BME280;62776;50.518;6.732;2023-09-19T07:17:30;96268.38;;;13.73;100.00
74346;BME280;62776;50.518;6.732;2023-09-19T07:20:16;96270.78;;;13.80;100.00
74346;BME280;62776;50.518;6.732;2023-09-19T07:23:02;96265.31;;;13.89;100.00
74346;BME280;62776;50.518;6.732;2023-09-19T07:25:49;96261.38;;;14.04;100.00
74346;BME280;62776;50.518;6.732;2023-09-19T07:28:35;96264.00;;;14.04;100.00
74346;BME280;62776;50.518;6.732;2023-09-19T07:31:22;96257.00;;;14.06;100.00
74346;BME280;62776;50.518;6.732;2023-09-19T07:34:08;96256.91;;;14.09;100.00
74346;BME280;62776;50.518;6.732;2023-09-19T07:36:56;96256.63;;;14.18;100.00
74346;BME280;62776;50.518;6.732;2023-09-19T07:39:43;96259.13;;;14.23;100.00
74346;BME280;62776;50.518;6.732;2023-09-19T07:42:30;96263.16;;;14.34;100.00
74346;BME280;62776;50.518;6.732;2023-09-19T07:45:17;96262.09;;;14.40;100.00
74346;BME280;62776;50.518;6.732;2023-09-19T07:48:04;96269.06;;;14.41;100.00
74346;BME280;62776;50.518;6.732;2023-09-19T07:50:52;96265.47;;;14.45;100.00
74346;BME280;62776;50.518;6.732;2023-09-19T07:53:38;96274.22;;;14.42;100.00
74346;BME280;62776;50.518;6.732;2023-09-19T07:56:24;96288.16;;;14.44;100.00
74346;BME280;62776;50.518;6.732;2023-09-19T07:59:13;96284.50;;;14.50;100.00
74346;BME280;62776;50.518;6.732;2023-09-19T08:01:59;96284.28;;;14.56;100.00
74346;BME280;62776;50.518;6.732;2023-09-19T08:04:46;96293.59;;;14.64;100.00
74346;BME280;62776;50.518;6.732;2023-09-19T08:07:33;96295.16;;;14.71;100.00
74346;BME280;62776;50.518;6.732;2023-09-19T08:10:22;96298.47;;;14.76;100.00
74346;BME280;62776;50.518;6.732;2023-09-19T08:13:08;96300.81;;;14.86;100.00
74346;BME280;62776;50.518;6.732;2023-09-19T08:16:00;96301.53;;;14.91;100.00
74346;BME280;62776;50.518;6.732;2023-09-19T08:18:49;96305.75;;;14.95;100.00
74346;BME280;62776;50.518;6.732;2023-09-19T08:21:41;96311.50;;;15.06;100.00
74346;BME280;62776;50.518;6.732;2023-09-19T08:24:29;96313.03;;;15.13;100.00
74346;BME280;62776;50.518;6.732;2023-09-19T08:27:15;96307.50;;;15.22;100.00
74346;BME280;62776;50.518;6.732;2023-09-19T08:30:04;96315.34;;;15.22;100.00
74346;BME280;62776;50.518;6.732;2023-09-19T08:32:56;96309.03;;;15.29;100.00
74346;BME280;62776;50.518;6.732;2023-09-19T08:35:43;96301.97;;;15.31;100.00
74346;BME280;62776;50.518;6.732;2023-09-19T08:38:33;96300.75;;;15.41;100.00
74346;BME280;62776;50.518;6.732;2023-09-19T08:41:19;96296.84;;;15.54;100.00
74346;BME280;62776;50.518;6.732;2023-09-19T08:44:05;96297.50;;;15.61;100.00
74346;BME280;62776;50.518;6.732;2023-09-19T08:46:55;96301.06;;;15.58;100.00
74346;BME280;62776;50.518;6.732;2023-09-19T08:50:00;96307.06;;;15.62;100.00
74346;BME280;62776;50.518;6.732;2023-09-19T08:52:52;96307.97;;;15.61;100.00
74346;BME280;62776;50.518;6.732;2023-09-19T08:55:41;96300.56;;;15.73;100.00
74346;BME280;62776;50.518;6.732;2023-09-19T08:58:34;96299.31;;;15.83;100.00
74346;BME280;62776;50.518;6.732;2023-09-19T09:01:30;96302.34;;;15.96;100.00
74346;BME280;62776;50.518;6.732;2023-09-19T09:04:18;96296.03;;;16.02;100.00
74346;BME280;62776;50.518;6.732;2023-09-19T09:07:05;96301.41;;;15.99;100.00
74346;BME280;62776;50.518;6.732;2023-09-19T09:09:52;96306.66;;;15.99;100.00
74346;BME280;62776;50.518;6.732;2023-09-19T09:12:38;96302.91;;;16.06;100.00
74346;BME280;62776;50.518;6.732;2023-09-19T09:15:27;96296.69;;;16.08;100.00
74346;BME280;62776;50.518;6.732;2023-09-19T09:18:15;96301.41;;;16.23;100.00
74346;BME280;62776;50.518;6.732;2023-09-19T09:21:01;96308.00;;;16.33;100.00
74346;BME280;62776;50.518;6.732;2023-09-19T09:23:50;96308.41;;;16.46;100.00
74346;BME280;62776;50.518;6.732;2023-09-19T09:26:41;96303.78;;;16.52;100.00
74346;BME280;62776;50.518;6.732;2023-09-19T09:29:51;96303.25;;;16.43;100.00
74346;BME280;62776;50.518;6.732;2023-09-19T09:32:38;96306.81;;;16.65;100.00
74346;BME280;62776;50.518;6.732;2023-09-19T09:35:26;96301.13;;;16.77;100.00
74346;BME280;62776;50.518;6.732;2023-09-19T09:38:13;96298.75;;;16.93;100.00
74346;BME280;62776;50.518;6.732;2023-09-19T09:41:00;96290.63;;;16.99;100.00
74346;BME280;62776;50.518;6.732;2023-09-19T09:43:52;96283.00;;;17.15;100.00
74346;BME280;62776;50.518;6.732;2023-09-19T09:46:43;96283.81;;;17.17;100.00
74346;BME280;62776;50.518;6.732;2023-09-19T09:49:48;96283.53;;;17.23;100.00
74346;BME280;62776;50.518;6.732;2023-09-19T09:52:46;96272.97;;;17.24;100.00
74346;BME280;62776;50.518;6.732;2023-09-19T09:56:02;96285.63;;;17.15;100.00
74346;BME280;62776;50.518;6.732;2023-09-19T09:58:52;96274.81;;;17.22;100.00
74346;BME280;62776;50.518;6.732;2023-09-19T10:01:47;96275.97;;;17.15;100.00
74346;BME280;62776;50.518;6.732;2023-09-19T10:04:34;96262.84;;;17.15;100.00
74346;BME280;62776;50.518;6.732;2023-09-19T10:07:31;96275.31;;;17.10;100.00
74346;BME280;62776;50.518;6.732;2023-09-19T10:10:36;96278.78;;;16.89;98.99
74346;BME280;62776;50.518;6.732;2023-09-19T10:13:30;96268.53;;;16.83;100.00
74346;BME280;62776;50.518;6.732;2023-09-19T10:16:18;96268.19;;;16.92;100.00
74346;BME280;62776;50.518;6.732;2023-09-19T10:19:10;96257.53;;;16.95;100.00
74346;BME280;62776;50.518;6.732;2023-09-19T10:21:59;96277.63;;;16.96;100.00
74346;BME280;62776;50.518;6.732;2023-09-19T10:24:49;96262.59;;;16.99;100.00
74346;BME280;62776;50.518;6.732;2023-09-19T10:27:39;96272.44;;;16.94;100.00
74346;BME280;62776;50.518;6.732;2023-09-19T10:30:31;96261.41;;;16.86;100.00
74346;BME280;62776;50.518;6.732;2023-09-19T10:33:22;96265.59;;;16.90;100.00
74346;BME280;62776;50.518;6.732;2023-09-19T10:36:09;96263.81;;;16.91;100.00
74346;BME280;62776;50.518;6.732;2023-09-19T10:38:58;96251.16;;;17.00;100.00
74346;BME280;62776;50.518;6.732;2023-09-19T10:41:55;96257.13;;;17.05;95.97
74346;BME280;62776;50.518;6.732;2023-09-19T10:44:51;96259.34;;;17.15;97.10
74346;BME280;62776;50.518;6.732;2023-09-19T10:47:40;96265.75;;;17.29;98.60
74346;BME280;62776;50.518;6.732;2023-09-19T10:50:28;96263.59;;;17.39;96.00
74346;BME280;62776;50.518;6.732;2023-09-19T10:53:17;96267.69;;;17.46;91.24
74346;BME280;62776;50.518;6.732;2023-09-19T10:56:05;96266.47;;;17.54;96.57
74346;BME280;62776;50.518;6.732;2023-09-19T10:59:17;96281.47;;;17.51;92.21
74346;BME280;62776;50.518;6.732;2023-09-19T11:02:18;96268.47;;;17.48;84.95
74346;BME280;62776;50.518;6.732;2023-09-19T11:05:13;96283.19;;;17.52;86.63
74346;BME280;62776;50.518;6.732;2023-09-19T11:08:00;96278.38;;;17.63;85.63
74346;BME280;62776;50.518;6.732;2023-09-19T11:10:50;96279.03;;;17.68;86.62
74346;BME280;62776;50.518;6.732;2023-09-19T11:13:37;96282.94;;;17.80;89.13
74346;BME280;62776;50.518;6.732;2023-09-19T11:16:25;96270.00;;;17.94;86.45
74346;BME280;62776;50.518;6.732;2023-09-19T11:19:11;96277.47;;;18.04;89.28
74346;BME280;62776;50.518;6.732;2023-09-19T11:21:58;96270.59;;;18.00;85.61
74346;BME280;62776;50.518;6.732;2023-09-19T11:24:45;96263.63;;;17.99;86.96
74346;BME280;62776;50.518;6.732;2023-09-19T11:27:31;96270.88;;;17.94;86.22
74346;BME280;62776;50.518;6.732;2023-09-19T11:30:27;96265.75;;;17.91;82.54
74346;BME280;62776;50.518;6.732;2023-09-19T11:33:19;96269.06;;;17.96;83.46
74346;BME280;62776;50.518;6.732;2023-09-19T11:36:14;96269.09;;;17.95;83.39
74346;BME280;62776;50.518;6.732;2023-09-19T11:39:25;96266.84;;;17.86;84.51
74346;BME280;62776;50.518;6.732;2023-09-19T11:42:47;96274.22;;;17.78;85.17
74346;BME280;62776;50.518;6.732;2023-09-19T11:48:32;96276.22;;;17.93;89.44
74346;BME280;62776;50.518;6.732;2023-09-19T11:51:23;96281.53;;;17.91;87.67
74346;BME280;62776;50.518;6.732;2023-09-19T11:54:14;96273.44;;;17.96;85.85
74346;BME280;62776;50.518;6.732;2023-09-19T11:57:04;96278.38;;;18.03;87.70
74346;BME280;62776;50.518;6.732;2023-09-19T11:59:50;96279.09;;;18.07;83.93
74346;BME280;62776;50.518;6.732;2023-09-19T12:02:47;96289.09;;;17.99;83.35
74346;BME280;62776;50.518;6.732;2023-09-19T12:05:36;96283.28;;;18.11;89.06
74346;BME280;62776;50.518;6.732;2023-09-19T12:08:23;96281.50;;;18.11;84.63
74346;BME280;62776;50.518;6.732;2023-09-19T12:11:13;96287.69;;;18.10;85.41
74346;BME280;62776;50.518;6.732;2023-09-19T12:14:01;96275.03;;;18.18;88.77
74346;BME280;62776;50.518;6.732;2023-09-19T12:16:54;96264.88;;;18.11;80.76
74346;BME280;62776;50.518;6.732;2023-09-19T12:19:55;96274.78;;;18.24;87.72
74346;BME280;62776;50.518;6.732;2023-09-19T12:22:43;96272.78;;;18.29;82.29
74346;BME280;62776;50.518;6.732;2023-09-19T12:25:42;96272.22;;;18.23;83.92
74346;BME280;62776;50.518;6.732;2023-09-19T12:28:42;96280.03;;;18.24;80.08
74346;BME280;62776;50.518;6.732;2023-09-19T12:31:29;96269.31;;;18.29;82.29
74346;BME280;62776;50.518;6.732;2023-09-19T12:34:19;96263.84;;;18.34;84.76
74346;BME280;62776;50.518;6.732;2023-09-19T12:37:07;96268.69;;;18.43;83.86
74346;BME280;62776;50.518;6.732;2023-09-19T12:40:10;96266.13;;;18.41;76.89
74346;BME280;62776;50.518;6.732;2023-09-19T12:43:09;96283.91;;;18.36;79.69
74346;BME280;62776;50.518;6.732;2023-09-19T12:45:59;96271.66;;;18.35;76.42
74346;BME280;62776;50.518;6.732;2023-09-19T12:51:59;96262.84;;;18.17;77.59
74346;BME280;62776;50.518;6.732;2023-09-19T12:54:45;96259.13;;;18.21;75.43
74346;BME280;62776;50.518;6.732;2023-09-19T12:57:35;96257.09;;;18.28;79.50
74346;BME280;62776;50.518;6.732;2023-09-19T13:00:21;96252.41;;;18.35;78.22
74346;BME280;62776;50.518;6.732;2023-09-19T13:03:26;96251.19;;;18.23;79.67
74346;BME280;62776;50.518;6.732;2023-09-19T13:06:15;96269.88;;;18.36;79.42
74346;BME280;62776;50.518;6.732;2023-09-19T13:09:10;96258.31;;;18.40;81.08
74346;BME280;62776;50.518;6.732;2023-09-19T13:11:56;96259.19;;;18.59;79.49
74346;BME280;62776;50.518;6.732;2023-09-19T13:14:45;96249.22;;;18.65;80.70
74346;BME280;62776;50.518;6.732;2023-09-19T13:17:47;96252.00;;;18.62;75.54
74346;BME280;62776;50.518;6.732;2023-09-19T13:20:37;96246.41;;;18.70;75.54
74346;BME280;62776;50.518;6.732;2023-09-19T13:23:28;96229.72;;;18.88;75.91
74346;BME280;62776;50.518;6.732;2023-09-19T13:26:15;96229.56;;;18.91;74.11
74346;BME280;62776;50.518;6.732;2023-09-19T13:29:01;96232.81;;;18.96;76.84
74346;BME280;62776;50.518;6.732;2023-09-19T13:31:49;96235.47;;;18.96;70.65
74346;BME280;62776;50.518;6.732;2023-09-19T13:34:35;96232.28;;;18.90;70.19
74346;BME280;62776;50.518;6.732;2023-09-19T13:37:21;96226.63;;;18.97;76.61
74346;BME280;62776;50.518;6.732;2023-09-19T13:40:13;96220.13;;;19.04;73.92
74346;BME280;62776;50.518;6.732;2023-09-19T13:42:59;96212.84;;;19.09;72.39
74346;BME280;62776;50.518;6.732;2023-09-19T13:45:45;96218.78;;;19.14;76.77
74346;BME280;62776;50.518;6.732;2023-09-19T13:48:32;96219.09;;;19.25;76.44
74346;BME280;62776;50.518;6.732;2023-09-19T13:51:22;96216.78;;;19.36;79.52
74346;BME280;62776;50.518;6.732;2023-09-19T13:54:09;96222.88;;;19.56;75.21
74346;BME280;62776;50.518;6.732;2023-09-19T13:56:55;96213.78;;;19.61;67.45
74346;BME280;62776;50.518;6.732;2023-09-19T13:59:41;96211.16;;;19.61;69.37
74346;BME280;62776;50.518;6.732;2023-09-19T14:02:27;96219.31;;;19.89;68.00
74346;BME280;62776;50.518;6.732;2023-09-19T14:05:16;96217.53;;;20.40;66.11
74346;BME280;62776;50.518;6.732;2023-09-19T14:08:05;96218.03;;;20.93;62.87
74346;BME280;62776;50.518;6.732;2023-09-19T14:10:52;96215.50;;;21.23;59.31
74346;BME280;62776;50.518;6.732;2023-09-19T14:13:39;96217.28;;;21.52;57.26
74346;BME280;62776;50.518;6.732;2023-09-19T14:16:26;96220.44;;;21.89;56.25
74346;BME280;62776;50.518;6.732;2023-09-19T14:19:19;96227.63;;;21.71;53.97
74346;BME280;62776;50.518;6.732;2023-09-19T14:22:07;96234.31;;;21.33;55.60
74346;BME280;62776;50.518;6.732;2023-09-19T14:24:53;96235.69;;;21.54;53.47
74346;BME280;62776;50.518;6.732;2023-09-19T14:27:40;96222.22;;;21.29;53.96
74346;BME280;62776;50.518;6.732;2023-09-19T14:30:28;96217.06;;;21.41;53.65
74346;BME280;62776;50.518;6.732;2023-09-19T14:33:17;96230.47;;;22.26;51.32
74346;BME280;62776;50.518;6.732;2023-09-19T14:36:08;96228.88;;;22.38;49.64
74346;BME280;62776;50.518;6.732;2023-09-19T14:38:55;96224.97;;;22.01;52.02
74346;BME280;62776;50.518;6.732;2023-09-19T14:41:43;96228.00;;;22.09;50.49
74346;BME280;62776;50.518;6.732;2023-09-19T14:44:29;96213.09;;;22.22;49.79
74346;BME280;62776;50.518;6.732;2023-09-19T14:47:15;96212.06;;;22.39;51.72
74346;BME280;62776;50.518;6.732;2023-09-19T14:50:03;96210.63;;;22.33;52.45
74346;BME280;62776;50.518;6.732;2023-09-19T14:52:53;96224.75;;;21.60;54.34
74346;BME280;62776;50.518;6.732;2023-09-19T14:55:40;96219.31;;;21.02;57.82
74346;BME280;62776;50.518;6.732;2023-09-19T14:58:32;96209.28;;;20.62;61.39
74346;BME280;62776;50.518;6.732;2023-09-19T15:01:19;96213.00;;;20.42;62.47